createdAt,value
2022-11-27T15:14:29.444Z,70.60
2022-11-27T15:16:58.541Z,128.70
2022-11-27T15:19:29.727Z,91.20
2022-11-27T15:21:58.071Z,65.72
2022-11-27T15:24:31.792Z,77.90
2022-11-27T15:27:16.633Z,66.85
2022-11-27T15:30:00.832Z,65.10
2022-11-27T15:32:45.587Z,62.67
2022-11-27T15:35:14.901Z,61.90
2022-11-27T15:37:42.894Z,155.27
2022-11-27T15:40:26.311Z,84.72
2022-11-27T15:42:53.757Z,78.80
2022-11-27T15:45:23.536Z,81.60
2022-11-27T15:47:58.803Z,89.03
2022-11-27T15:50:26.252Z,89.85
2022-11-27T16:35:17.359Z,19.02
2022-11-27T16:37:44.814Z,21.63
2022-11-27T16:40:13.785Z,23.77
2022-11-27T16:42:41.268Z,27.88
2022-11-27T16:45:10.098Z,21.10
2022-11-27T16:47:37.776Z,23.02
2022-11-27T16:50:06.255Z,22.60
2022-11-27T16:52:35.060Z,23.50
2022-11-27T16:55:02.722Z,25.17
2022-11-27T16:57:30.214Z,25.45
2022-11-27T16:59:57.666Z,20.05
2022-11-27T17:02:25.294Z,17.88
2022-11-27T17:04:52.754Z,24.20
2022-11-27T17:07:20.952Z,23.88
2022-11-27T17:09:49.828Z,23.55
2022-11-27T17:12:17.576Z,50.67
2022-11-27T17:17:14.542Z,18.08
2022-11-27T17:19:42.432Z,21.63
2022-11-27T17:22:10.482Z,23.45
2022-11-27T17:39:36.991Z,13.90
2022-11-27T17:42:08.736Z,15.68
2022-11-27T17:44:39.126Z,14.63
2022-11-27T17:47:06.614Z,15.73
2022-11-27T17:49:34.523Z,19.02
2022-11-27T17:52:06.372Z,22.05
2022-11-27T17:54:34.561Z,21.90
2022-11-27T17:57:03.410Z,21.17
2022-11-27T17:59:30.952Z,28.90
2022-11-27T18:01:58.923Z,25.70
2022-11-27T18:06:58.480Z,31.55
2022-11-27T18:09:25.943Z,34.70
2022-11-27T18:11:54.821Z,36.47
2022-11-27T18:14:23.674Z,40.53
2022-11-27T18:16:51.196Z,38.55
2022-11-27T18:19:18.730Z,42.42
2022-11-27T18:21:46.273Z,43.58
2022-11-27T18:24:29.186Z,38.75
2022-11-27T18:27:12.267Z,38.55
2022-11-27T18:29:44.405Z,39.10
2022-11-27T18:32:14.308Z,40.88
2022-11-27T18:34:42.401Z,42.95
2022-11-27T18:42:06.555Z,38.60
2022-11-27T18:44:39.714Z,46.47
2022-11-27T18:47:12.494Z,43.78
2022-11-27T18:49:41.334Z,43.70
2022-11-27T18:52:10.477Z,45.28
2022-11-27T18:54:38.075Z,47.05
2022-11-27T18:57:06.970Z,44.38
2022-11-27T18:59:34.544Z,45.33
2022-11-27T19:02:02.381Z,45.17
2022-11-27T19:04:31.376Z,44.70
2022-11-27T19:06:58.910Z,45.40
2022-11-27T19:09:26.459Z,42.50
2022-11-27T19:11:53.929Z,44.50
2022-11-27T19:14:21.421Z,45.53
2022-11-27T19:16:49.589Z,45.47
2022-11-27T19:22:08.523Z,41.70
2022-11-27T19:24:36.390Z,45.28
2022-11-27T19:27:06.981Z,41.38
2022-11-27T19:29:34.718Z,40.67
2022-11-27T19:32:02.816Z,40.60
2022-11-27T19:34:30.415Z,37.65
2022-11-27T19:36:58.890Z,38.88
2022-11-27T19:39:28.650Z,46.28
2022-11-27T19:41:57.670Z,44.38
2022-11-27T19:44:25.312Z,39.58
2022-11-27T19:46:52.851Z,41.97
2022-11-27T19:49:21.513Z,46.20
2022-11-27T19:51:49.697Z,42.55
2022-11-27T19:54:19.163Z,38.17
2022-11-27T19:56:48.063Z,43.15
2022-11-27T19:59:15.728Z,41.53
2022-11-27T20:01:43.398Z,41.20
2022-11-27T20:04:11.935Z,41.90
2022-11-27T20:06:40.980Z,41.17
2022-11-27T20:09:08.893Z,43.33
2022-11-27T20:11:36.744Z,41.53
2022-11-27T20:14:06.953Z,43.70
2022-11-27T20:16:35.505Z,42.80
2022-11-27T20:19:05.291Z,43.45
2022-11-27T20:21:32.787Z,44.65
2022-11-27T20:24:00.553Z,37.15
2022-11-27T20:26:30.378Z,40.83
2022-11-27T20:28:58.555Z,42.38
2022-11-27T20:31:29.604Z,40.63
2022-11-27T20:34:00.536Z,39.90
2022-11-27T20:36:31.974Z,39.70
2022-11-27T20:39:01.032Z,44.30
2022-11-27T20:41:29.136Z,44.20
2022-11-27T20:46:24.960Z,42.80
2022-11-27T20:48:55.050Z,43.95
2022-11-27T20:51:25.226Z,44.67
2022-11-27T20:53:52.739Z,43.63
2022-11-27T20:56:21.555Z,42.55
2022-11-27T20:58:49.942Z,43.03
2022-11-27T21:01:19.534Z,39.38
2022-11-27T21:03:49.088Z,43.38
2022-11-27T21:06:19.816Z,41.90
2022-11-27T21:08:47.319Z,42.90
2022-11-27T21:11:16.641Z,43.45
2022-11-27T21:13:44.675Z,43.63
2022-11-27T21:18:40.988Z,42.25
2022-11-27T21:21:11.368Z,46.22
2022-11-27T21:23:40.802Z,44.60
2022-11-27T21:26:09.200Z,38.25
2022-11-27T21:28:36.833Z,44.38
2022-11-27T21:31:06.644Z,42.97
2022-11-27T21:33:34.225Z,45.15
2022-11-27T21:36:01.837Z,42.35
2022-11-27T21:38:29.370Z,42.38
2022-11-27T21:40:58.195Z,44.92
2022-11-27T21:43:25.752Z,44.35
2022-11-27T22:00:25.523Z,42.78
2022-11-27T22:02:53.627Z,42.60
2022-11-27T22:07:48.545Z,39.78
2022-11-27T22:10:16.272Z,39.17
2022-11-27T22:12:43.798Z,40.17
2022-11-27T22:15:12.136Z,38.88
2022-11-27T22:17:40.946Z,38.22
2022-11-27T22:20:09.309Z,38.45
2022-11-27T22:22:36.771Z,38.58
2022-11-27T22:25:04.683Z,36.40
2022-11-27T22:27:32.235Z,37.88
2022-11-27T22:29:59.686Z,36.38
2022-11-27T22:32:27.223Z,38.47
2022-11-27T22:34:56.184Z,37.08
2022-11-27T22:37:23.688Z,37.45
2022-11-27T22:39:51.164Z,38.40
2022-11-27T22:42:18.660Z,36.20
2022-11-27T22:44:46.359Z,36.38
2022-11-27T22:47:13.814Z,35.60
2022-11-27T22:49:41.556Z,37.60
2022-11-27T22:52:10.378Z,36.28
2022-11-27T22:54:37.857Z,34.97
2022-11-27T22:57:05.321Z,36.22
2022-11-27T22:59:34.368Z,37.70
2022-11-27T23:02:02.709Z,31.85
2022-11-27T23:06:57.639Z,36.08
2022-11-27T23:09:26.734Z,34.90
2022-11-27T23:11:54.312Z,32.97
2022-11-27T23:14:21.771Z,35.03
2022-11-27T23:16:49.490Z,35.25
2022-11-27T23:19:17.055Z,35.90
2022-11-27T23:21:44.749Z,32.83
2022-11-27T23:24:15.061Z,36.30
2022-11-27T23:26:45.662Z,33.92
2022-11-27T23:29:13.842Z,35.42
2022-11-27T23:31:41.368Z,34.50
2022-11-27T23:34:13.036Z,31.63
2022-11-27T23:36:40.591Z,33.08
2022-11-27T23:39:10.035Z,31.58
2022-11-27T23:41:37.520Z,30.48
2022-11-27T23:44:06.753Z,30.75
2022-11-27T23:46:34.267Z,32.97
2022-11-27T23:49:03.312Z,32.65
2022-11-27T23:51:32.558Z,31.42
2022-11-27T23:54:01.356Z,31.23
2022-11-27T23:56:30.816Z,31.98
2022-11-27T23:58:59.030Z,33.38
